Nulato, Alaska
Current Conditions -  °F | °C
As of 8:09 AM on Saturday 25 Oct 2014 (Local Time) from PAKV Reporting Station
Light Snow Light Snow  
Wind Chill: -2°   Ceiling: 900
Heat Index: -2°   Visibility: 9mi
Dew Point: -3°   Wind: 0mph
Humidity: 92%   Direction: NA
Pressure: 29.85"   Gusts: NA
Location:  64.72°N, 158.13°W
Report Text: PAKV 251609Z AUTO 00000KT 9SM -SN OVC009 M02/M03 A2985 RMK AO2 SNB03 P0000 T10221033 TSNO
Loading
Personal Weather Stations






























Interactive Weather Map
Tropical Storm Tracking
New forecast layout! Learn more

10-Day Weather Forecast

Advertisements
Track Severe Weather on mobile